Time;durP1;ratioP1;P1;durP2;ratioP2;P2;SDS_P1;SDS_P2;PMS_P1;PMS_P2;Temp;Humidity;BMP_temperature;BMP_pressure;BME280_temperature;BME280_humidity;BME280_pressure;Samples;Min_cycle;Max_cycle;Signal;HPM_P1;HPM_P2
2020/12/25 00:00:24;;;;;;;15.60;9.63;;;5.20;99.90;;;6.41;100.00;99885.13;4753635;30;20736;-67
2020/12/25 00:02:51;;;;;;;14.90;10.17;;;5.30;99.90;;;6.35;100.00;99881.41;4753609;30;20725;-68
2020/12/25 00:05:20;;;;;;;12.77;9.80;;;5.30;99.90;;;6.26;100.00;99892.47;4753694;30;20350;-68
2020/12/25 00:07:48;;;;;;;12.97;10.57;;;5.30;99.90;;;6.31;100.00;99893.50;4754117;30;20226;-69
2020/12/25 00:10:15;;;;;;;15.23;9.87;;;5.30;99.90;;;6.25;100.00;99891.63;4753402;30;20299;-67
2020/12/25 00:12:44;;;;;;;13.07;9.00;;;5.30;99.90;;;5.99;100.00;99896.81;4753691;30;20277;-68
2020/12/25 00:15:11;;;;;;;14.33;10.13;;;5.20;99.90;;;6.03;100.00;99903.44;4753666;30;20258;-67
2020/12/25 00:17:39;;;;;;;15.27;9.83;;;5.20;99.90;;;6.13;100.00;99904.75;4753720;30;20212;-67
2020/12/25 00:20:06;;;;;;;16.80;10.33;;;5.20;99.90;;;5.89;100.00;99907.88;4753363;30;20247;-68
2020/12/25 00:22:34;;;;;;;14.30;10.10;;;5.20;99.90;;;5.97;100.00;99904.25;4753567;30;20239;-67
2020/12/25 00:25:02;;;;;;;16.00;10.53;;;5.10;99.90;;;6.00;100.00;99907.31;4753074;30;20322;-67
2020/12/25 00:27:29;;;;;;;16.80;10.33;;;5.10;99.90;;;6.12;100.00;99907.63;4753530;30;20314;-67
2020/12/25 00:29:56;;;;;;;16.07;10.93;;;5.10;99.90;;;6.20;100.00;99904.78;4753479;30;20284;-67
2020/12/25 00:32:23;;;;;;;12.63;9.53;;;5.10;99.90;;;6.19;100.00;99908.47;4752935;30;20656;-67
2020/12/25 00:34:50;;;;;;;13.93;9.80;;;5.20;99.90;;;5.91;100.00;99915.69;4753004;30;20717;-68
2020/12/25 00:37:17;;;;;;;15.90;10.43;;;5.10;99.90;;;5.87;100.00;99907.25;4753033;30;20320;-67
2020/12/25 00:39:45;;;;;;;15.60;10.37;;;5.00;99.90;;;5.73;100.00;99910.00;4752426;30;20219;-67
2020/12/25 00:42:12;;;;;;;13.87;10.17;;;5.10;99.90;;;6.17;100.00;99913.19;4753232;30;20301;-67
2020/12/25 00:44:40;;;;;;;14.23;10.37;;;5.10;99.90;;;5.99;100.00;99912.88;4752775;30;20275;-67
2020/12/25 00:47:07;;;;;;;17.03;10.87;;;5.10;99.90;;;5.72;100.00;99903.00;4752870;30;20219;-66
2020/12/25 00:49:34;;;;;;;13.97;10.07;;;5.00;99.90;;;5.65;100.00;99907.50;4752483;30;20240;-67
2020/12/25 00:52:01;;;;;;;14.70;11.07;;;4.90;99.90;;;6.04;100.00;99921.97;4753015;30;20262;-66
2020/12/25 00:54:28;;;;;;;14.93;10.03;;;5.00;99.90;;;5.90;100.00;99917.53;4752388;30;20280;-68
2020/12/25 00:56:56;;;;;;;15.77;10.63;;;5.00;99.90;;;5.92;100.00;99923.53;4752988;30;20215;-68
2020/12/25 00:59:23;;;;;;;13.33;9.40;;;5.10;99.90;;;5.84;100.00;99922.84;4752509;30;20212;-67
2020/12/25 01:01:52;;;;;;;13.67;9.30;;;5.00;99.90;;;6.11;100.00;99933.53;4752795;30;20306;-68
2020/12/25 01:04:20;;;;;;;13.93;9.50;;;5.00;99.90;;;5.78;100.00;99927.13;4752602;30;20243;-66
2020/12/25 01:06:47;;;;;;;13.07;9.47;;;5.00;99.90;;;5.90;100.00;99938.13;4752466;30;20777;-66
2020/12/25 01:09:14;;;;;;;14.10;10.03;;;5.00;99.90;;;5.96;100.00;99932.81;4751855;30;20262;-67
2020/12/25 01:11:42;;;;;;;14.03;9.70;;;5.00;99.90;;;5.67;100.00;99938.31;4744059;30;20212;-67
2020/12/25 01:14:10;;;;;;;12.80;9.10;;;5.00;99.90;;;5.75;100.00;99932.03;4734980;30;20241;-68
2020/12/25 01:16:38;;;;;;;13.10;8.77;;;4.90;99.90;;;5.99;100.00;99937.75;4734904;30;20224;-67
2020/12/25 01:19:05;;;;;;;13.43;9.00;;;5.00;99.90;;;5.80;100.00;99932.25;4734645;30;20288;-68
2020/12/25 01:21:32;;;;;;;15.33;9.03;;;4.90;99.90;;;5.65;100.00;99944.88;4734900;30;20263;-67
2020/12/25 01:23:59;;;;;;;11.63;8.43;;;5.00;99.90;;;5.87;100.00;99951.84;4734665;30;20327;-66
2020/12/25 01:26:26;;;;;;;13.00;9.70;;;5.00;99.90;;;5.84;100.00;99946.91;4734342;30;20299;-67
2020/12/25 01:29:03;;;;;;;14.27;8.83;;;5.00;99.90;;;5.84;100.00;99950.41;4734705;30;20244;-68
2020/12/25 01:31:31;;;;;;;12.90;8.40;;;5.00;99.90;;;5.60;100.00;99957.97;4734773;30;20230;-67
2020/12/25 01:33:59;;;;;;;12.23;8.10;;;4.90;99.90;;;5.88;100.00;99959.69;4734401;30;20312;-68
2020/12/25 01:36:26;;;;;;;12.43;8.77;;;4.90;99.90;;;5.65;100.00;99956.38;4734565;30;20268;-68
2020/12/25 01:38:55;;;;;;;13.90;8.90;;;4.90;99.90;;;5.72;100.00;99964.44;4734568;30;20220;-67
2020/12/25 01:41:23;;;;;;;11.37;8.13;;;4.90;99.90;;;6.03;100.00;99959.59;4733718;30;20307;-68
2020/12/25 01:43:50;;;;;;;12.93;7.90;;;5.00;99.90;;;5.97;100.00;99961.19;4734006;30;20326;-67
2020/12/25 01:46:17;;;;;;;13.17;7.77;;;5.00;99.90;;;5.85;100.00;99953.91;4733958;30;20296;-67
2020/12/25 01:48:46;;;;;;;13.10;7.60;;;5.00;99.90;;;5.78;100.00;99958.34;4734430;30;20250;-67
2020/12/25 01:51:17;;;;;;;13.07;8.20;;;4.90;99.90;;;5.96;100.00;99962.22;4734260;30;20212;-66
2020/12/25 01:53:44;;;;;;;13.23;7.93;;;5.00;99.90;;;5.74;100.00;99963.25;4734095;30;20290;-67
2020/12/25 01:56:14;;;;;;;13.30;8.00;;;5.00;99.90;;;5.61;100.00;99963.16;4733868;30;20220;-67
2020/12/25 01:58:42;;;;;;;11.67;7.60;;;4.90;99.90;;;5.67;100.00;99966.88;4739798;30;20216;-67
2020/12/25 02:01:10;;;;;;;11.50;7.83;;;4.80;99.90;;;5.95;100.00;99959.75;4751799;30;20214;-67
2020/12/25 02:03:38;;;;;;;12.13;7.40;;;4.90;99.90;;;5.80;100.00;99967.00;4751556;30;20224;-68
2020/12/25 02:06:06;;;;;;;12.30;7.53;;;4.90;99.90;;;5.35;100.00;99972.75;4751604;30;20270;-67
2020/12/25 02:08:33;;;;;;;11.87;8.50;;;4.80;99.90;;;5.66;100.00;99965.22;4751336;30;20256;-67
2020/12/25 02:11:01;;;;;;;9.97;7.10;;;4.80;99.90;;;5.65;100.00;99967.06;4750962;30;20300;-68
2020/12/25 02:13:30;;;;;;;12.40;7.77;;;4.80;99.90;;;5.80;100.00;99967.00;4751290;30;20281;-67
2020/12/25 02:15:58;;;;;;;10.50;6.17;;;4.80;99.90;;;5.97;100.00;99973.75;4751459;30;20219;-68
2020/12/25 02:18:36;;;;;;;9.83;5.93;;;4.90;99.90;;;5.88;100.00;99980.25;4751483;30;20556;-67
2020/12/25 02:21:05;;;;;;;8.00;5.10;;;5.00;99.90;;;5.59;100.00;99985.72;4751392;30;20239;-68
2020/12/25 02:23:32;;;;;;;6.33;4.90;;;4.90;99.90;;;5.72;100.00;99980.47;4751387;30;20242;-68
2020/12/25 02:25:59;;;;;;;7.20;4.60;;;4.90;99.90;;;5.67;100.00;99991.75;4751067;30;20326;-68
2020/12/25 02:28:26;;;;;;;6.70;4.80;;;4.80;99.90;;;5.79;100.00;99990.22;4751572;30;20590;-67
2020/12/25 02:30:53;;;;;;;4.57;3.90;;;4.80;99.90;;;5.91;100.00;99993.22;4751535;30;20771;-67
2020/12/25 02:33:21;;;;;;;7.23;4.03;;;4.90;99.90;;;5.85;100.00;100002.03;4751382;30;20239;-67
2020/12/25 02:35:48;;;;;;;6.13;4.63;;;4.90;99.90;;;5.87;100.00;100002.63;4751229;30;20219;-68
2020/12/25 02:38:16;;;;;;;6.67;4.40;;;4.90;99.90;;;5.64;100.00;100002.00;4751517;30;20315;-67
2020/12/25 02:40:43;;;;;;;5.20;4.30;;;4.90;99.90;;;5.79;100.00;100021.47;4750904;30;20266;-67
2020/12/25 02:43:11;;;;;;;6.23;3.90;;;4.90;99.90;;;5.73;100.00;100006.19;4751030;30;20741;-67
2020/12/25 02:45:38;;;;;;;5.93;4.10;;;4.90;99.90;;;5.62;100.00;100014.72;4751097;30;20379;-67
2020/12/25 02:48:05;;;;;;;5.30;3.90;;;4.90;99.90;;;5.69;100.00;100018.28;4750761;30;20214;-67
2020/12/25 02:50:32;;;;;;;5.17;4.03;;;4.90;99.90;;;5.65;100.00;100025.03;4750880;30;20234;-67
2020/12/25 02:52:59;;;;;;;5.30;3.43;;;4.80;99.90;;;5.57;100.00;100033.16;4751164;30;20643;-67
2020/12/25 02:55:27;;;;;;;5.67;3.47;;;4.80;99.90;;;5.47;100.00;100027.31;4750306;30;20715;-66
2020/12/25 02:57:55;;;;;;;5.90;3.80;;;4.80;99.90;;;5.44;100.00;100019.69;4751114;30;20326;-67
2020/12/25 03:00:22;;;;;;;4.27;3.80;;;4.70;99.90;;;5.31;100.00;100027.56;4750948;30;20246;-67
2020/12/25 03:02:49;;;;;;;6.20;4.13;;;4.60;99.90;;;5.29;100.00;100026.94;4750879;30;20883;-66
2020/12/25 03:05:32;;;;;;;5.73;3.80;;;4.60;99.90;;;5.34;100.00;100027.19;4750901;30;20308;-67
2020/12/25 03:07:59;;;;;;;5.83;3.67;;;4.60;99.90;;;5.28;100.00;100038.59;4751111;30;20294;-66
2020/12/25 03:10:27;;;;;;;4.40;3.90;;;4.50;99.90;;;5.21;100.00;100037.72;4750224;30;20253;-66
2020/12/25 03:12:54;;;;;;;5.07;3.97;;;4.40;99.90;;;5.11;100.00;100039.88;4750929;30;20318;-66
2020/12/25 03:15:22;;;;;;;4.97;4.10;;;4.40;99.90;;;5.19;100.00;100042.41;4750928;30;20293;-66
2020/12/25 03:17:49;;;;;;;4.40;3.70;;;4.40;99.90;;;5.16;100.00;100048.94;4750690;30;20226;-65
2020/12/25 03:20:16;;;;;;;6.53;4.40;;;4.30;99.90;;;5.20;100.00;100055.59;4751189;30;20626;-66
2020/12/25 03:22:43;;;;;;;5.33;3.90;;;4.40;99.90;;;4.88;100.00;100056.00;4750995;30;20308;-64
2020/12/25 03:25:10;;;;;;;5.87;4.10;;;4.30;99.90;;;4.94;100.00;100045.41;4750206;30;20329;-66
2020/12/25 03:27:39;;;;;;;5.43;4.40;;;4.20;99.90;;;5.32;100.00;100051.41;4750937;30;20654;-65
2020/12/25 03:30:06;;;;;;;6.97;4.70;;;4.40;99.90;;;5.32;100.00;100058.59;4750630;30;20250;-65
2020/12/25 03:32:33;;;;;;;6.93;4.77;;;4.40;99.90;;;5.37;100.00;100046.34;4750857;30;20287;-66
2020/12/25 03:35:00;;;;;;;6.03;4.60;;;4.50;99.90;;;5.17;100.00;100052.47;4750772;30;20673;-68
2020/12/25 03:37:28;;;;;;;6.00;4.90;;;4.40;99.90;;;5.20;100.00;100052.91;4750577;30;20212;-66
2020/12/25 03:39:55;;;;;;;9.87;5.37;;;4.40;99.90;;;4.98;100.00;100051.19;4750400;30;20307;-66
2020/12/25 03:42:22;;;;;;;6.77;5.40;;;4.40;99.90;;;5.12;100.00;100057.53;4750786;30;20307;-66
2020/12/25 03:44:54;;;;;;;8.43;4.60;;;4.40;99.90;;;5.32;100.00;100055.91;4750437;30;20232;-67
2020/12/25 03:47:24;;;;;;;6.77;4.20;;;4.40;99.90;;;5.46;100.00;100060.41;4750761;30;20238;-65
2020/12/25 03:49:52;;;;;;;6.87;4.37;;;4.50;99.90;;;5.26;100.00;100060.16;4750103;30;20744;-67
2020/12/25 03:52:19;;;;;;;6.50;4.17;;;4.50;99.90;;;5.28;100.00;100057.28;4750466;30;20246;-66
2020/12/25 03:54:47;;;;;;;6.40;4.47;;;4.40;99.90;;;5.22;100.00;100058.91;4750336;30;20212;-66
2020/12/25 03:57:14;;;;;;;4.73;4.07;;;4.50;99.90;;;5.00;100.00;100059.84;4750377;30;20314;-67
2020/12/25 03:59:42;;;;;;;5.93;4.00;;;4.40;99.90;;;5.40;100.00;100059.31;4750584;30;20249;-66
2020/12/25 04:02:10;;;;;;;7.37;4.40;;;4.40;99.90;;;5.38;100.00;100065.88;4750361;30;20219;-66
2020/12/25 04:04:38;;;;;;;7.03;4.63;;;4.50;99.90;;;5.23;100.00;100065.88;4750325;30;20329;-68
2020/12/25 04:07:05;;;;;;;6.20;4.20;;;4.50;99.90;;;5.25;100.00;100068.34;4750601;30;20243;-66
2020/12/25 04:09:32;;;;;;;7.57;4.37;;;4.40;99.90;;;5.15;100.00;100067.84;4753004;30;20251;-66
2020/12/25 04:11:59;;;;;;;5.23;4.17;;;4.40;99.90;;;5.16;100.00;100064.16;4753486;30;20254;-67
2020/12/25 04:14:26;;;;;;;6.03;4.30;;;4.40;99.90;;;5.24;100.00;100066.72;4753815;30;20295;-66
2020/12/25 04:16:54;;;;;;;5.13;4.03;;;4.40;99.90;;;5.25;100.00;100071.03;4753516;30;20301;-66
2020/12/25 04:19:22;;;;;;;5.03;3.40;;;4.40;99.90;;;5.22;100.00;100079.41;4753519;30;20257;-67
2020/12/25 04:21:49;;;;;;;5.73;4.00;;;4.40;99.90;;;5.15;100.00;100078.50;4753594;30;20275;-67
2020/12/25 04:24:16;;;;;;;6.00;3.77;;;4.40;99.90;;;5.11;100.00;100086.06;4752930;30;20249;-66
2020/12/25 04:26:47;;;;;;;5.50;3.80;;;4.40;99.90;;;5.17;100.00;100092.50;4753218;30;20219;-66
2020/12/25 04:29:14;;;;;;;5.53;4.00;;;4.40;99.90;;;5.21;100.00;100091.13;4753591;30;20224;-67
2020/12/25 04:31:41;;;;;;;6.73;4.07;;;4.40;99.90;;;5.19;100.00;100080.63;4753141;30;20266;-67
2020/12/25 04:34:09;;;;;;;7.53;3.50;;;4.40;99.90;;;5.14;100.00;100098.22;4753505;30;20458;-67
2020/12/25 04:36:37;;;;;;;5.07;3.63;;;4.40;99.90;;;5.20;100.00;100094.78;4752933;30;20222;-67
2020/12/25 04:39:06;;;;;;;5.20;3.90;;;4.40;99.90;;;5.14;100.00;100099.06;4752951;30;20608;-66
2020/12/25 04:41:34;;;;;;;6.27;3.73;;;4.30;99.90;;;5.05;100.00;100099.31;4752859;30;20310;-66
2020/12/25 04:44:03;;;;;;;4.93;3.57;;;4.40;99.90;;;5.02;100.00;100102.38;4752830;30;20250;-67
2020/12/25 04:46:30;;;;;;;4.43;3.30;;;4.30;99.90;;;5.08;100.00;100104.28;4753126;30;20262;-67
2020/12/25 04:48:58;;;;;;;5.93;3.57;;;4.30;99.90;;;5.14;100.00;100114.25;4752660;30;20681;-67
2020/12/25 04:51:25;;;;;;;4.63;3.10;;;4.30;99.90;;;5.05;100.00;100116.19;4752690;30;20656;-67
2020/12/25 04:53:55;;;;;;;4.57;3.20;;;4.30;99.90;;;5.00;100.00;100113.25;4752457;30;20585;-67
2020/12/25 04:56:24;;;;;;;3.57;3.10;;;4.30;99.90;;;4.85;100.00;100118.56;4752886;30;20594;-67
2020/12/25 04:58:53;;;;;;;5.27;3.40;;;4.20;99.90;;;5.05;100.00;100118.84;4752632;30;20266;-67
2020/12/25 05:01:20;;;;;;;3.73;2.97;;;4.20;99.90;;;4.97;100.00;100130.44;4752674;30;20252;-68
2020/12/25 05:03:48;;;;;;;5.97;3.30;;;4.20;99.90;;;4.84;100.00;100130.25;4752650;30;20697;-66
2020/12/25 05:06:19;;;;;;;4.00;3.40;;;4.20;99.90;;;4.92;100.00;100132.84;4752354;30;20667;-67
2020/12/25 05:08:48;;;;;;;5.10;3.10;;;4.20;99.90;;;4.92;100.00;100132.84;4752592;30;20210;-67
2020/12/25 05:11:20;;;;;;;4.30;3.20;;;4.20;99.90;;;4.92;100.00;100138.16;4752538;30;20216;-67
2020/12/25 05:13:49;;;;;;;3.63;3.10;;;4.20;99.90;;;4.95;100.00;100143.13;4752773;30;20198;-67
2020/12/25 05:16:19;;;;;;;8.60;3.57;;;4.20;99.90;;;4.85;100.00;100141.78;4752664;30;20246;-68
2020/12/25 05:18:50;;;;;;;4.33;3.00;;;4.20;99.90;;;4.77;100.00;100155.19;4752316;30;20243;-67
2020/12/25 05:21:19;;;;;;;5.57;3.37;;;4.10;99.90;;;4.70;100.00;100155.09;4751848;30;20744;-67
2020/12/25 05:23:49;;;;;;;5.43;3.27;;;4.00;99.90;;;4.70;100.00;100157.75;4752258;30;20301;-67
2020/12/25 05:26:19;;;;;;;3.90;3.00;;;4.00;99.90;;;4.61;100.00;100166.03;4752331;30;20689;-67
2020/12/25 05:28:49;;;;;;;3.97;2.80;;;4.00;99.90;;;4.65;99.75;100167.31;4752240;30;20774;-68
2020/12/25 05:31:17;;;;;;;4.27;2.60;;;4.00;99.90;;;4.68;97.68;100169.63;4752392;30;20303;-68
2020/12/25 05:33:48;;;;;;;2.80;2.50;;;4.00;99.90;;;4.65;96.35;100180.66;4752330;30;20215;-67
2020/12/25 05:36:16;;;;;;;3.90;2.10;;;3.90;99.90;;;4.71;95.33;100177.25;4752183;30;20274;-67
2020/12/25 05:38:48;;;;;;;2.40;2.20;;;3.90;99.90;;;4.55;94.88;100191.56;4752012;30;20307;-67
2020/12/25 05:41:17;;;;;;;3.23;2.27;;;3.90;99.90;;;4.49;95.42;100192.31;4751783;30;20293;-67
2020/12/25 05:43:48;;;;;;;2.50;2.20;;;3.90;99.90;;;4.52;94.87;100189.28;4752187;30;20251;-67
2020/12/25 05:46:15;;;;;;;2.83;2.37;;;3.90;99.90;;;4.56;95.00;100195.91;4752139;30;20248;-67
2020/12/25 05:48:49;;;;;;;3.33;2.30;;;3.80;99.90;;;4.56;94.65;100211.91;4751939;30;20304;-67
2020/12/25 05:51:22;;;;;;;2.53;2.10;;;3.80;99.90;;;4.64;94.44;100211.84;4751920;30;20200;-67
2020/12/25 05:53:54;;;;;;;3.20;2.10;;;3.80;99.90;;;4.57;94.74;100215.41;4751723;30;20313;-68
2020/12/25 05:56:22;;;;;;;2.57;1.87;;;3.80;99.90;;;4.61;94.92;100217.53;4751561;30;20198;-67
2020/12/25 05:58:53;;;;;;;3.90;2.10;;;3.80;99.90;;;4.57;94.82;100226.91;4751872;30;20296;-67
2020/12/25 06:01:20;;;;;;;3.07;2.13;;;3.80;99.90;;;4.41;95.62;100231.53;4752056;30;20285;-67
2020/12/25 06:03:48;;;;;;;4.13;2.40;;;3.70;99.90;;;4.52;96.14;100231.94;4751681;30;20249;-68
2020/12/25 06:06:20;;;;;;;2.93;2.17;;;3.70;99.90;;;4.55;95.82;100226.25;4751404;30;20268;-67
2020/12/25 06:08:59;;;;;;;2.20;2.00;;;3.70;99.90;;;4.59;96.09;100240.06;4751593;30;20279;-67
2020/12/25 06:11:31;;;;;;;2.53;2.03;;;3.70;99.90;;;4.51;96.28;100246.31;4751643;30;20317;-67
2020/12/25 06:13:59;;;;;;;3.50;1.90;;;3.70;99.90;;;4.39;96.82;100247.72;4751645;30;20216;-68
2020/12/25 06:16:29;;;;;;;2.00;1.90;;;3.70;99.90;;;4.40;96.03;100256.53;4751735;30;20304;-67
2020/12/25 06:19:09;;;;;;;3.23;2.00;;;3.70;99.90;;;4.52;96.02;100263.94;4751727;30;20199;-67
2020/12/25 06:21:49;;;;;;;2.57;2.30;;;3.70;99.90;;;4.51;96.09;100264.13;4751784;30;20287;-67
2020/12/25 06:24:19;;;;;;;3.13;2.00;;;3.70;99.90;;;4.23;96.67;100271.00;4751168;30;20493;-67
2020/12/25 06:26:54;;;;;;;2.80;2.33;;;3.60;99.90;;;4.37;97.63;100279.06;4751441;30;20200;-68
2020/12/25 06:29:23;;;;;;;3.10;2.03;;;3.60;99.90;;;4.40;94.84;100289.38;4751553;30;20588;-68
2020/12/25 06:31:53;;;;;;;2.57;1.40;;;3.60;99.90;;;4.39;94.54;100302.88;4751130;30;20244;-68
2020/12/25 06:34:21;;;;;;;2.37;1.70;;;3.60;99.90;;;4.27;95.58;100312.28;4751414;30;20294;-68
2020/12/25 06:36:49;;;;;;;3.63;1.60;;;3.60;99.90;;;4.25;96.69;100314.28;4751074;30;20239;-67
2020/12/25 06:39:22;;;;;;;2.63;1.90;;;3.50;99.90;;;4.64;94.36;100320.38;4751225;30;20268;-68
2020/12/25 06:41:49;;;;;;;3.50;1.50;;;3.70;99.90;;;4.60;93.47;100311.91;4751510;30;20291;-68
2020/12/25 06:44:18;;;;;;;3.40;1.70;;;3.70;99.90;;;4.73;92.13;100313.97;4751354;30;20208;-67
2020/12/25 06:46:50;;;;;;;2.00;1.30;;;3.80;99.90;;;4.75;92.13;100323.44;4751110;30;20245;-59
2020/12/25 06:49:20;;;;;;;2.70;1.30;;;3.80;99.90;;;4.57;92.09;100332.75;4750790;30;20338;-59
2020/12/25 06:51:48;;;;;;;2.93;1.40;;;3.80;99.90;;;4.42;91.94;100338.03;4750895;30;20683;-60
2020/12/25 06:54:18;;;;;;;2.30;1.70;;;3.70;99.90;;;4.55;91.56;100332.94;4750655;30;20303;-60
2020/12/25 06:56:48;;;;;;;2.60;1.30;;;3.70;99.90;;;4.52;91.59;100337.78;4751054;30;20260;-59
2020/12/25 06:59:18;;;;;;;2.00;1.30;;;3.70;99.90;;;4.45;91.09;100339.50;4750771;30;20696;-60
2020/12/25 07:01:48;;;;;;;2.47;1.53;;;3.70;99.90;;;4.28;91.39;100341.44;4751219;30;20258;-59
2020/12/25 07:04:27;;;;;;;1.33;1.23;;;3.60;99.90;;;4.17;92.15;100349.00;4751099;30;20213;-59
2020/12/25 07:06:56;;;;;;;1.57;1.30;;;3.50;99.90;;;4.58;90.99;100347.78;4751286;30;20240;-59
2020/12/25 07:09:36;;;;;;;1.80;1.20;;;3.60;99.90;;;4.33;90.58;100346.25;4750807;30;20252;-60
2020/12/25 07:12:10;;;;;;;5.03;1.80;;;3.60;99.90;;;4.55;88.92;100361.47;4750796;30;20230;-59
2020/12/25 07:14:38;;;;;;;1.53;1.40;;;3.60;99.90;;;4.56;88.34;100369.28;4751016;30;20227;-60
2020/12/25 07:17:05;;;;;;;3.60;1.40;;;3.60;99.90;;;4.68;87.89;100370.56;4750727;30;20212;-60
2020/12/25 07:19:34;;;;;;;2.07;1.33;;;3.70;99.90;;;4.35;89.21;100379.72;4750762;30;20253;-60
2020/12/25 07:22:04;;;;;;;2.00;1.20;;;3.60;99.90;;;4.66;87.66;100383.22;4750689;30;20294;-59
2020/12/25 07:24:31;;;;;;;1.37;1.00;;;3.70;99.90;;;4.59;87.23;100392.09;4750800;30;20296;-59
2020/12/25 07:26:59;;;;;;;2.40;1.30;;;3.70;99.90;;;4.48;86.93;100390.66;4750642;30;20309;-60
2020/12/25 07:29:28;;;;;;;1.63;1.53;;;3.70;99.90;;;4.41;87.88;100392.38;4750844;30;20256;-59
2020/12/25 07:31:56;;;;;;;2.57;1.23;;;3.70;99.90;;;4.43;87.34;100398.34;4750578;30;20226;-60
2020/12/25 07:34:26;;;;;;;3.70;1.50;;;3.70;99.90;;;4.37;88.34;100399.06;4750830;30;20296;-60
2020/12/25 07:36:56;;;;;;;2.47;1.30;;;3.60;99.90;;;4.38;88.73;100403.38;4750584;30;20217;-60
2020/12/25 07:39:26;;;;;;;1.90;1.60;;;3.60;99.90;;;4.29;89.52;100393.78;4750886;30;20226;-59
2020/12/25 07:41:53;;;;;;;4.10;1.40;;;3.50;99.90;;;4.61;86.41;100412.28;4750640;30;20237;-60
2020/12/25 07:44:22;;;;;;;2.63;1.50;;;3.60;99.90;;;4.70;86.27;100413.88;4753493;30;20622;-59
2020/12/25 07:46:50;;;;;;;1.77;1.47;;;3.70;99.90;;;4.61;85.25;100417.59;4753963;30;20282;-60
2020/12/25 07:49:19;;;;;;;1.60;1.50;;;3.70;99.90;;;4.40;86.93;100413.84;4753767;30;20740;-60
2020/12/25 07:51:49;;;;;;;1.30;1.20;;;3.70;99.90;;;4.55;84.53;100412.16;4753486;30;20684;-59
2020/12/25 07:54:18;;;;;;;1.30;1.20;;;3.70;99.90;;;4.44;85.31;100418.69;4754166;30;20234;-60
2020/12/25 07:56:48;;;;;;;1.47;1.37;;;3.70;99.90;;;4.41;85.25;100413.72;4753983;30;20291;-60
2020/12/25 07:59:20;;;;;;;2.73;1.47;;;3.60;99.90;;;4.62;82.97;100421.94;4753675;30;20737;-61
2020/12/25 08:01:47;;;;;;;1.87;1.50;;;3.70;99.90;;;4.59;83.00;100424.94;4754004;30;20231;-60
2020/12/25 08:04:14;;;;;;;3.03;1.30;;;3.70;99.90;;;4.69;82.49;100432.72;4753716;30;20245;-59
2020/12/25 08:06:43;;;;;;;1.80;1.20;;;3.80;99.90;;;4.51;83.00;100432.16;4753815;30;20319;-59
2020/12/25 08:09:13;;;;;;;2.03;1.20;;;3.80;99.90;;;4.41;84.11;100445.72;4753861;30;20238;-60
2020/12/25 08:11:41;;;;;;;1.67;1.30;;;3.70;99.90;;;4.35;85.25;100445.53;4753825;30;20235;-60
2020/12/25 08:14:14;;;;;;;1.60;1.30;;;3.60;99.90;;;4.41;85.76;100451.06;4753902;30;20640;-59
2020/12/25 08:16:44;;;;;;;1.40;0.97;;;3.60;99.90;;;4.53;85.29;100446.97;4753575;30;20643;-60
2020/12/25 08:19:12;;;;;;;1.67;1.40;;;3.60;99.90;;;4.44;86.69;100452.53;4754369;30;20648;-60
2020/12/25 08:21:41;;;;;;;1.87;1.30;;;3.60;99.90;;;4.14;88.79;100447.97;4753330;30;20273;-60
2020/12/25 08:24:09;;;;;;;1.30;1.20;;;3.50;99.90;;;4.34;88.26;100452.75;4753700;30;20255;-59
2020/12/25 08:26:39;;;;;;;2.40;1.37;;;3.50;99.90;;;4.32;88.32;100444.06;4753188;30;20745;-60
2020/12/25 08:29:08;;;;;;;2.00;1.13;;;3.50;99.90;;;4.39;88.68;100455.72;4753328;30;20719;-61
2020/12/25 08:31:37;;;;;;;1.13;1.03;;;3.60;99.90;;;4.48;88.70;100457.31;4753511;30;20291;-60
2020/12/25 08:34:07;;;;;;;1.80;1.40;;;3.60;99.90;;;4.63;88.81;100466.25;4753585;30;20219;-60
2020/12/25 08:36:34;;;;;;;1.40;1.30;;;3.70;99.90;;;4.72;88.74;100469.72;4753347;30;20641;-59
2020/12/25 08:39:08;;;;;;;1.70;1.20;;;3.70;99.90;;;4.69;89.83;100470.06;4753555;30;20255;-60
2020/12/25 08:41:35;;;;;;;1.90;1.53;;;3.70;99.90;;;4.69;89.78;100475.41;4753282;30;20249;-60
2020/12/25 08:44:11;;;;;;;1.40;1.23;;;3.80;99.90;;;4.49;90.75;100476.84;4753357;30;20212;-59
2020/12/25 08:46:38;;;;;;;2.10;1.67;;;3.70;99.90;;;4.46;91.08;100486.03;4740189;30;20235;-59
2020/12/25 08:49:06;;;;;;;2.33;1.40;;;3.70;99.90;;;4.37;92.30;100481.72;4735290;30;20249;-59
2020/12/25 08:51:39;;;;;;;2.33;1.40;;;3.50;99.90;;;4.46;92.43;100490.53;4735420;30;20200;-60
2020/12/25 08:54:08;;;;;;;1.63;1.43;;;3.60;99.90;;;4.74;91.29;100494.41;4735128;30;20207;-59
2020/12/25 08:56:36;;;;;;;1.87;1.30;;;3.70;99.90;;;4.56;90.93;100502.66;4735233;30;20255;-59
2020/12/25 08:59:06;;;;;;;1.93;1.53;;;3.80;99.90;;;4.64;91.75;100509.78;4743807;30;20246;-59
2020/12/25 09:01:36;;;;;;;2.20;1.50;;;3.80;99.90;;;4.84;90.11;100509.19;4753529;30;20293;-61
2020/12/25 09:04:04;;;;;;;2.30;1.33;;;3.90;99.90;;;4.67;92.00;100512.09;4753636;30;20224;-59
2020/12/25 09:06:31;;;;;;;1.77;1.27;;;3.80;99.90;;;4.74;93.10;100515.75;4753452;30;20338;-59
2020/12/25 09:08:59;;;;;;;2.57;1.67;;;3.80;99.90;;;5.09;89.95;100520.56;4753606;30;20621;-59
2020/12/25 09:11:27;;;;;;;1.53;1.43;;;3.90;99.90;;;5.04;89.89;100516.78;4753416;30;20308;-60
2020/12/25 09:13:55;;;;;;;3.07;1.20;;;4.00;99.90;;;4.91;91.85;100518.19;4733989;30;20295;-59
2020/12/25 09:16:22;;;;;;;1.40;1.30;;;3.90;99.90;;;4.94;91.00;100520.50;4730111;30;20739;-59
2020/12/25 09:18:49;;;;;;;2.80;1.20;;;4.00;99.90;;;4.87;90.94;100530.19;4735618;30;20218;-68
2020/12/25 09:21:17;;;;;;;1.23;1.13;;;4.00;99.90;;;4.81;93.03;100530.06;4735710;30;20301;-68
2020/12/25 09:23:45;;;;;;;1.87;1.20;;;3.90;99.90;;;5.06;91.20;100525.44;4735702;30;20326;-67
2020/12/25 09:26:14;;;;;;;1.93;1.40;;;4.00;99.90;;;5.23;90.23;100532.34;4735188;30;20725;-70
2020/12/25 09:28:42;;;;;;;4.30;1.40;;;4.10;99.90;;;5.00;90.51;100529.66;4735402;30;20219;-67
2020/12/25 09:31:13;;;;;;;2.97;1.30;;;4.10;99.90;;;5.20;90.91;100540.69;4735279;30;20222;-67
2020/12/25 09:33:41;;;;;;;2.00;1.33;;;4.20;99.90;;;5.18;90.27;100543.56;4735556;30;20320;-67
2020/12/25 09:36:11;;;;;;;1.70;1.43;;;4.20;99.90;;;5.12;90.98;100538.94;4735191;30;20224;-66
2020/12/25 09:38:43;;;;;;;1.33;1.10;;;4.20;99.90;;;5.23;90.65;100546.53;4735388;30;20247;-67
2020/12/25 09:41:13;;;;;;;1.37;1.27;;;4.30;99.90;;;5.33;89.83;100546.31;4735374;30;20204;-66
2020/12/25 09:43:40;;;;;;;2.20;0.97;;;4.30;99.90;;;5.46;89.39;100543.88;4734294;30;20218;-68
2020/12/25 09:46:09;;;;;;;3.67;1.40;;;4.30;99.90;;;5.47;88.61;100541.03;4734183;30;20233;-67
2020/12/25 09:48:36;;;;;;;3.00;1.30;;;4.40;99.90;;;5.36;88.39;100540.63;4734152;30;20342;-67
2020/12/25 09:51:04;;;;;;;2.30;1.10;;;4.50;99.90;;;5.38;88.91;100544.75;4734321;30;20223;-67
2020/12/25 09:53:31;;;;;;;1.13;1.03;;;4.40;99.90;;;5.39;88.54;100545.59;4734479;30;20239;-67
2020/12/25 09:55:59;;;;;;;3.27;1.23;;;4.40;99.90;;;4.94;90.50;100551.69;4735277;30;20309;-59
2020/12/25 09:58:26;;;;;;;2.03;1.07;;;4.30;99.90;;;5.28;89.09;100543.31;4738943;30;20345;-59
2020/12/25 10:00:53;;;;;;;2.77;1.17;;;4.30;99.90;;;5.36;89.86;100544.09;4752468;30;20302;-59
2020/12/25 10:03:24;;;;;;;2.00;1.70;;;4.40;99.90;;;5.36;90.09;100554.78;4751975;30;20223;-59
2020/12/25 10:05:51;;;;;;;2.00;1.00;;;4.40;99.90;;;5.45;87.65;100550.22;4751859;30;20310;-59
2020/12/25 10:08:18;;;;;;;1.40;1.00;;;4.50;99.90;;;5.62;87.36;100554.44;4751375;30;20254;-59
2020/12/25 10:10:46;;;;;;;2.27;0.90;;;4.60;99.90;;;5.31;87.76;100556.34;4751315;30;20268;-59
2020/12/25 10:13:13;;;;;;;0.87;0.87;;;4.50;99.90;;;5.23;88.29;100554.53;4751749;30;20219;-60
2020/12/25 10:15:40;;;;;;;2.03;1.07;;;4.40;99.90;;;5.22;89.10;100563.56;4750977;30;20297;-60
2020/12/25 10:18:07;;;;;;;1.20;1.00;;;4.30;99.90;;;5.39;86.89;100557.13;4751160;30;20616;-60
2020/12/25 10:20:35;;;;;;;2.20;1.07;;;4.40;99.90;;;5.33;87.16;100567.69;4751127;30;20287;-60
2020/12/25 10:23:02;;;;;;;1.70;0.97;;;4.40;99.90;;;5.21;87.85;100569.09;4751431;30;20306;-60
2020/12/25 10:25:30;;;;;;;2.73;1.10;;;4.40;99.90;;;5.60;87.05;100578.69;4751378;30;20329;-59
2020/12/25 10:27:58;;;;;;;2.50;1.10;;;4.50;99.90;;;5.58;85.96;100575.34;4751254;30;20216;-59